createdAt,value
2022-12-27T00:02:15.279Z,96876.19
2022-12-27T00:07:20.544Z,96884.88
2022-12-27T00:12:22.776Z,96896.16
2022-12-27T00:17:24.840Z,96879.06
2022-12-27T00:22:27.004Z,96847.31
2022-12-27T00:27:29.094Z,96867.78
2022-12-27T00:32:31.678Z,96865.38
2022-12-27T00:37:33.826Z,96872.97
2022-12-27T00:42:36.015Z,96880.56
2022-12-27T00:47:38.409Z,96867.84
2022-12-27T00:52:40.504Z,96880.50
2022-12-27T00:57:42.764Z,96878.28
2022-12-27T01:02:44.994Z,96873.03
2022-12-27T01:07:48.565Z,96892.72
2022-12-27T01:12:50.825Z,96891.09
2022-12-27T01:17:52.983Z,96883.13
2022-12-27T01:22:55.535Z,96872.78
2022-12-27T01:27:57.906Z,96860.69
2022-12-27T01:33:00.484Z,96866.69
2022-12-27T01:38:02.634Z,96859.03
2022-12-27T01:43:04.710Z,96859.66
2022-12-27T01:48:15.108Z,96857.03
2022-12-27T01:53:23.776Z,96862.34
2022-12-27T01:59:00.240Z,96856.22
2022-12-27T02:04:09.311Z,96852.84
2022-12-27T02:09:18.093Z,96859.19
2022-12-27T02:14:43.433Z,96860.78
2022-12-27T02:19:53.225Z,96854.59
2022-12-27T02:25:08.965Z,96827.28
2022-12-27T02:30:13.648Z,96840.03
2022-12-27T02:35:32.568Z,96838.34
2022-12-27T02:40:55.309Z,96835.75
2022-12-27T02:46:35.665Z,96812.03
2022-12-27T02:52:05.892Z,96812.78
2022-12-27T02:57:14.269Z,96846.84
2022-12-27T03:03:10.894Z,96815.91
2022-12-27T03:08:34.898Z,96833.91
2022-12-27T03:13:55.883Z,96837.44
2022-12-27T03:19:40.940Z,96833.13
2022-12-27T03:25:01.610Z,96818.84
2022-12-27T03:30:26.245Z,96829.03
2022-12-27T03:35:32.063Z,96829.06
2022-12-27T03:41:01.876Z,96833.47
2022-12-27T03:46:23.127Z,96826.34
2022-12-27T03:51:31.870Z,96825.50
2022-12-27T03:56:34.235Z,96818.44
2022-12-27T04:01:36.502Z,96822.16
2022-12-27T04:06:38.748Z,96813.56
2022-12-27T04:11:59.557Z,96830.53
2022-12-27T04:17:20.385Z,96824.31
2022-12-27T04:22:41.151Z,96823.59
2022-12-27T04:28:01.887Z,96823.59
2022-12-27T04:33:22.509Z,96848.59
2022-12-27T04:38:24.996Z,96815.22
2022-12-27T04:43:46.173Z,96815.94
2022-12-27T04:49:07.329Z,96826.66
2022-12-27T04:54:36.837Z,96830.72
2022-12-27T04:59:57.912Z,96807.41
2022-12-27T05:05:00.416Z,96809.72
2022-12-27T05:10:23.965Z,96817.50
2022-12-27T05:15:26.146Z,96798.31
2022-12-27T05:20:28.531Z,96799.47
2022-12-27T05:25:38.753Z,96818.53
2022-12-27T05:30:43.422Z,96823.25
2022-12-27T05:35:45.649Z,96820.03
2022-12-27T05:40:47.777Z,96813.03
2022-12-27T05:45:50.090Z,96820.41
2022-12-27T05:50:52.489Z,96800.94
2022-12-27T05:55:56.693Z,96808.81
2022-12-27T06:01:01.285Z,96808.50
2022-12-27T06:06:06.260Z,96823.41
2022-12-27T06:11:13.993Z,96819.78
2022-12-27T06:16:16.503Z,96822.03
2022-12-27T06:21:20.948Z,96812.66
2022-12-27T06:26:28.921Z,96831.69
2022-12-27T06:31:31.101Z,96820.63
2022-12-27T06:36:33.659Z,96816.16
2022-12-27T06:41:35.988Z,96802.72
2022-12-27T06:46:38.374Z,96814.41
2022-12-27T06:51:40.783Z,96801.72
2022-12-27T06:56:44.466Z,96815.63
2022-12-27T07:01:47.601Z,96821.34
2022-12-27T07:06:49.858Z,96813.09
2022-12-27T07:11:54.225Z,96815.47
2022-12-27T07:16:57.085Z,96813.91
2022-12-27T07:22:24.405Z,96798.59
2022-12-27T07:27:39.517Z,96793.03
2022-12-27T07:32:45.217Z,96787.34
2022-12-27T07:37:47.613Z,96786.84
2022-12-27T07:42:50.086Z,96794.19
2022-12-27T07:47:53.554Z,96799.59
2022-12-27T07:52:55.705Z,96789.31
2022-12-27T07:57:58.377Z,96768.50
2022-12-27T08:03:00.999Z,96782.81
2022-12-27T08:08:04.412Z,96767.13
2022-12-27T08:13:06.503Z,96788.47
2022-12-27T08:18:09.440Z,96788.16
2022-12-27T08:23:11.673Z,96763.78
2022-12-27T08:28:16.789Z,96790.72
2022-12-27T08:33:58.422Z,96772.91
2022-12-27T08:39:01.422Z,96784.81
2022-12-27T08:44:05.058Z,96776.34
2022-12-27T08:49:09.276Z,96767.94
2022-12-27T08:54:11.794Z,96757.13
2022-12-27T08:59:14.163Z,96737.47
2022-12-27T09:04:16.323Z,96736.78
2022-12-27T09:09:19.113Z,96710.25
2022-12-27T09:14:21.538Z,96708.94
2022-12-27T09:19:24.808Z,96694.06
2022-12-27T09:24:27.071Z,96679.78
2022-12-27T09:29:29.307Z,96678.38
2022-12-27T09:34:31.699Z,96683.81
2022-12-27T09:39:34.143Z,96648.03
2022-12-27T09:44:52.913Z,96684.72
2022-12-27T09:50:05.517Z,96665.41
2022-12-27T09:55:22.403Z,96666.41
2022-12-27T10:00:34.199Z,96678.84
2022-12-27T10:05:39.685Z,96674.53
2022-12-27T10:11:36.465Z,96665.00
2022-12-27T10:16:51.035Z,96677.38
2022-12-27T10:22:22.884Z,96672.03
2022-12-27T10:27:28.557Z,96671.41
2022-12-27T10:32:30.783Z,96674.53
2022-12-27T10:37:41.725Z,96659.66
2022-12-27T10:43:18.906Z,96652.75
2022-12-27T10:48:47.414Z,96655.09
2022-12-27T10:53:58.055Z,96651.34
2022-12-27T10:59:27.543Z,96624.09
2022-12-27T11:04:31.716Z,96646.53
2022-12-27T11:09:50.829Z,96641.19
2022-12-27T11:15:18.930Z,96648.72
2022-12-27T11:20:23.357Z,96632.03
2022-12-27T11:25:28.420Z,96636.13
2022-12-27T11:30:40.618Z,96634.88
2022-12-27T11:35:50.740Z,96610.66
2022-12-27T11:41:15.934Z,96633.81
2022-12-27T11:46:46.297Z,96638.66
2022-12-27T11:51:57.915Z,96629.28
2022-12-27T11:57:18.484Z,96644.44
2022-12-27T12:02:40.128Z,96633.56
2022-12-27T12:08:16.338Z,96631.50
2022-12-27T12:13:43.191Z,96642.84
2022-12-27T12:19:09.673Z,96643.28
2022-12-27T12:24:46.138Z,96646.19
2022-12-27T12:29:51.846Z,96663.78
2022-12-27T12:35:16.517Z,96667.59
2022-12-27T12:40:33.357Z,96671.78
2022-12-27T12:45:44.761Z,96681.53
2022-12-27T12:50:54.643Z,96660.16
2022-12-27T13:02:39.099Z,96703.28
2022-12-27T13:08:10.258Z,96690.91
2022-12-27T13:13:15.860Z,96730.53
2022-12-27T13:19:04.226Z,96731.78
2022-12-27T13:24:37.051Z,96745.66
2022-12-27T13:29:53.651Z,96745.38
2022-12-27T13:35:14.916Z,96748.59
2022-12-27T13:40:29.598Z,96763.66
2022-12-27T13:46:17.210Z,96761.91
2022-12-27T13:51:51.912Z,96767.72
2022-12-27T13:57:23.427Z,96760.69
2022-12-27T14:02:38.188Z,96771.78
2022-12-27T14:08:07.496Z,96787.69
2022-12-27T14:13:11.236Z,96776.38
2022-12-27T14:18:44.496Z,96802.81
2022-12-27T14:24:37.640Z,96826.91
2022-12-27T14:30:02.140Z,96852.63
2022-12-27T14:35:43.301Z,96823.44
2022-12-27T14:41:28.444Z,96860.00
2022-12-27T14:46:59.413Z,96846.19
2022-12-27T14:52:36.716Z,96849.75
2022-12-27T14:58:06.421Z,96845.75
2022-12-27T15:03:34.686Z,96865.47
2022-12-27T15:09:14.428Z,96830.13
2022-12-27T15:14:34.627Z,96864.69
2022-12-27T15:19:39.412Z,96874.94
2022-12-27T15:24:51.330Z,96873.78
2022-12-27T15:30:28.642Z,96889.81
2022-12-27T15:36:07.749Z,96884.66
2022-12-27T15:41:09.985Z,96896.91
2022-12-27T15:46:43.786Z,96908.00
2022-12-27T15:51:46.078Z,96913.72
2022-12-27T15:57:13.242Z,96916.09
2022-12-27T16:02:24.864Z,96938.69
2022-12-27T16:07:53.522Z,96919.50
2022-12-27T16:13:05.355Z,96933.84
2022-12-27T16:18:49.654Z,96933.22
2022-12-27T16:24:20.543Z,96932.44
2022-12-27T16:29:34.864Z,96922.44
2022-12-27T16:34:42.307Z,96927.19
2022-12-27T16:39:59.188Z,96913.94
2022-12-27T16:45:24.172Z,96928.97
2022-12-27T16:50:41.350Z,96934.16
2022-12-27T16:56:05.104Z,96945.47
2022-12-27T17:01:36.410Z,96952.00
2022-12-27T17:06:38.750Z,96968.34
2022-12-27T17:12:16.594Z,96973.38
2022-12-27T17:17:26.610Z,96973.47
2022-12-27T17:22:36.078Z,96984.72
2022-12-27T17:28:06.941Z,96950.47
2022-12-27T17:33:34.019Z,96984.78
2022-12-27T17:38:39.318Z,96979.63
2022-12-27T17:44:16.524Z,96986.44
2022-12-27T17:49:34.460Z,96961.78
2022-12-27T17:54:56.636Z,97002.81
2022-12-27T18:00:00.146Z,97005.78
2022-12-27T18:05:06.164Z,97010.31
2022-12-27T18:10:28.252Z,97016.09
2022-12-27T18:15:44.376Z,97017.66
2022-12-27T18:20:46.940Z,97035.06
2022-12-27T18:25:53.810Z,97019.53
2022-12-27T18:31:00.399Z,97038.22
2022-12-27T18:36:08.710Z,97031.59
2022-12-27T18:41:24.627Z,97032.97
2022-12-27T18:46:34.401Z,97038.91
2022-12-27T18:51:40.239Z,97056.69
2022-12-27T18:56:45.314Z,97044.63
2022-12-27T19:01:51.115Z,97044.28
2022-12-27T19:07:11.729Z,97038.75
2022-12-27T19:12:34.888Z,97057.25
2022-12-27T19:17:38.804Z,97070.28
2022-12-27T19:22:49.036Z,97062.75
2022-12-27T19:28:26.866Z,97077.72
2022-12-27T19:33:35.370Z,97091.94
2022-12-27T19:38:47.609Z,97096.50
2022-12-27T19:43:53.245Z,97077.41
2022-12-27T19:54:35.911Z,97114.97
2022-12-27T19:59:42.011Z,97094.59
2022-12-27T20:04:44.268Z,97109.53
2022-12-27T20:09:49.515Z,97111.63
2022-12-27T20:14:51.966Z,97094.13
2022-12-27T20:19:55.774Z,97065.84
2022-12-27T20:24:58.673Z,97065.28
2022-12-27T20:30:01.234Z,97094.53
2022-12-27T20:35:05.906Z,97107.75
2022-12-27T20:45:47.576Z,97127.53
2022-12-27T20:50:53.413Z,97114.56
2022-12-27T20:55:59.951Z,97110.03
2022-12-27T21:01:07.225Z,97118.84
2022-12-27T21:06:11.627Z,97143.25
2022-12-27T21:11:18.786Z,97147.19
2022-12-27T21:16:26.085Z,97136.41
2022-12-27T21:21:29.083Z,97174.41
2022-12-27T21:26:35.818Z,97165.22
2022-12-27T21:31:38.699Z,97145.94
2022-12-27T21:36:40.892Z,97129.50
2022-12-27T21:41:44.055Z,97116.53
2022-12-27T21:46:48.490Z,97138.72
2022-12-27T21:51:51.068Z,97140.13
2022-12-27T21:56:53.480Z,97151.69
2022-12-27T22:01:55.916Z,97169.88
2022-12-27T22:06:58.179Z,97145.13
2022-12-27T22:12:00.659Z,97143.53
2022-12-27T22:17:03.835Z,97143.44
2022-12-27T22:22:14.064Z,97171.28
2022-12-27T22:27:16.733Z,97095.84
2022-12-27T22:32:19.108Z,97174.72
2022-12-27T22:37:21.452Z,97179.84
2022-12-27T22:42:23.595Z,97154.41
2022-12-27T22:47:27.754Z,97175.94
2022-12-27T22:52:30.582Z,97146.47
2022-12-27T22:57:33.259Z,97174.31
2022-12-27T23:02:37.164Z,97178.47
2022-12-27T23:08:03.558Z,97155.53
2022-12-27T23:13:05.043Z,97162.06
2022-12-27T23:18:07.351Z,97143.56
2022-12-27T23:23:09.836Z,97152.78
2022-12-27T23:28:12.130Z,97167.88
2022-12-27T23:33:14.386Z,97149.28
2022-12-27T23:38:16.678Z,97155.78
2022-12-27T23:43:51.017Z,97136.41
2022-12-27T23:48:43.189Z,97156.97
2022-12-27T23:53:46.017Z,97161.88
2022-12-27T23:58:49.938Z,97172.66
